createdAt,value
2023-01-27T00:02:29.124Z,96749.09
2023-01-27T00:05:26.484Z,96753.31
2023-01-27T00:08:23.246Z,96738.34
2023-01-27T00:11:38.591Z,96738.31
2023-01-27T00:14:35.318Z,96735.81
2023-01-27T00:17:32.472Z,96747.78
2023-01-27T00:20:48.113Z,96739.91
2023-01-27T00:24:03.462Z,96731.13
2023-01-27T00:27:00.226Z,96730.75
2023-01-27T00:29:57.134Z,96730.44
2023-01-27T00:33:12.288Z,96726.16
2023-01-27T00:36:09.025Z,96734.41
2023-01-27T00:39:06.942Z,96727.78
2023-01-27T00:42:03.775Z,96733.19
2023-01-27T00:45:19.149Z,96731.19
2023-01-27T00:48:15.885Z,96730.03
2023-01-27T00:51:14.031Z,96733.47
2023-01-27T00:54:11.149Z,96743.00
2023-01-27T00:57:07.927Z,96734.44
2023-01-27T01:00:06.135Z,96734.91
2023-01-27T01:03:02.966Z,96744.13
2023-01-27T01:06:02.124Z,96737.59
2023-01-27T01:08:59.562Z,96741.50
2023-01-27T01:11:56.330Z,96741.72
2023-01-27T01:14:53.121Z,96739.19
2023-01-27T01:17:49.854Z,96739.09
2023-01-27T01:20:47.328Z,96750.88
2023-01-27T01:23:45.332Z,96746.66
2023-01-27T01:26:42.101Z,96744.47
2023-01-27T01:29:38.896Z,96756.69
2023-01-27T01:32:35.892Z,96750.22
2023-01-27T01:35:38.099Z,96750.91
2023-01-27T01:38:35.358Z,96745.41
2023-01-27T01:41:32.146Z,96742.94
2023-01-27T01:44:32.143Z,96740.88
2023-01-27T01:47:28.890Z,96736.00
2023-01-27T01:50:25.973Z,96738.56
2023-01-27T01:53:29.325Z,96733.97
2023-01-27T01:56:30.559Z,96735.78
2023-01-27T01:59:31.149Z,96733.97
2023-01-27T02:02:28.159Z,96738.09
2023-01-27T02:05:29.344Z,96727.50
2023-01-27T02:08:30.680Z,96738.28
2023-01-27T02:11:28.531Z,96739.09
2023-01-27T02:14:25.301Z,96735.66
2023-01-27T02:17:22.129Z,96730.28
2023-01-27T02:20:47.969Z,96735.16
2023-01-27T02:23:53.913Z,96717.03
2023-01-27T02:26:51.349Z,96726.88
2023-01-27T02:29:48.084Z,96724.28
2023-01-27T02:32:44.837Z,96714.31
2023-01-27T02:35:46.089Z,96722.13
2023-01-27T02:38:51.141Z,96728.91
2023-01-27T02:41:54.713Z,96724.59
2023-01-27T02:44:51.450Z,96734.28
2023-01-27T02:47:48.279Z,96733.88
2023-01-27T02:50:45.058Z,96730.59
2023-01-27T02:53:41.894Z,96741.88
2023-01-27T02:56:39.454Z,96737.38
2023-01-27T02:59:36.247Z,96740.16
2023-01-27T03:02:33.010Z,96743.13
2023-01-27T03:05:29.770Z,96755.16
2023-01-27T03:08:26.514Z,96754.19
2023-01-27T03:11:41.677Z,96749.25
2023-01-27T03:14:57.074Z,96742.44
2023-01-27T03:18:12.725Z,96734.59
2023-01-27T03:21:09.523Z,96742.25
2023-01-27T03:24:06.366Z,96737.72
2023-01-27T03:27:03.148Z,96726.66
2023-01-27T03:29:59.900Z,96722.81
2023-01-27T03:32:58.445Z,96737.16
2023-01-27T03:36:14.723Z,96738.22
2023-01-27T03:39:29.870Z,96747.50
2023-01-27T03:42:45.120Z,96750.53
2023-01-27T03:46:04.485Z,96751.00
2023-01-27T03:49:01.231Z,96745.53
2023-01-27T03:51:57.970Z,96744.44
2023-01-27T03:54:54.717Z,96758.34
2023-01-27T03:57:51.484Z,96755.28
2023-01-27T04:00:56.275Z,96751.28
2023-01-27T04:04:11.938Z,96761.72
2023-01-27T04:07:08.682Z,96747.06
2023-01-27T04:10:06.080Z,96749.38
2023-01-27T04:13:02.843Z,96742.84
2023-01-27T04:15:59.870Z,96748.94
2023-01-27T04:18:57.731Z,96738.44
2023-01-27T04:21:55.086Z,96742.78
2023-01-27T04:24:51.808Z,96742.38
2023-01-27T04:27:48.563Z,96750.25
2023-01-27T04:30:45.407Z,96759.22
2023-01-27T04:33:42.803Z,96750.75
2023-01-27T04:36:40.661Z,96757.78
2023-01-27T04:39:37.524Z,96754.28
2023-01-27T04:42:36.041Z,96763.81
2023-01-27T04:45:32.853Z,96753.84
2023-01-27T04:48:29.611Z,96758.84
2023-01-27T04:51:27.235Z,96764.56
2023-01-27T04:54:24.077Z,96766.09
2023-01-27T04:57:20.809Z,96768.84
2023-01-27T05:00:17.995Z,96760.97
2023-01-27T05:03:14.821Z,96770.09
2023-01-27T05:06:12.108Z,96762.75
2023-01-27T05:09:11.344Z,96755.72
2023-01-27T05:12:08.631Z,96758.56
2023-01-27T05:15:06.085Z,96758.94
2023-01-27T05:18:03.119Z,96765.41
2023-01-27T05:21:01.480Z,96760.91
2023-01-27T05:23:58.351Z,96765.59
2023-01-27T05:26:55.168Z,96763.81
2023-01-27T05:29:52.601Z,96757.47
2023-01-27T05:32:49.343Z,96756.41
2023-01-27T05:35:46.105Z,96759.03
2023-01-27T05:38:42.889Z,96761.78
2023-01-27T05:41:39.639Z,96762.63
2023-01-27T05:44:36.908Z,96758.28
2023-01-27T05:47:33.657Z,96764.69
2023-01-27T05:50:30.402Z,96771.31
2023-01-27T05:53:27.239Z,96773.94
2023-01-27T05:56:26.554Z,96771.53
2023-01-27T05:59:24.210Z,96775.63
2023-01-27T06:02:22.757Z,96790.81
2023-01-27T06:05:20.314Z,96790.06
2023-01-27T06:08:17.115Z,96792.41
2023-01-27T06:11:14.654Z,96798.28
2023-01-27T06:14:11.462Z,96795.31
2023-01-27T06:17:08.203Z,96792.53
2023-01-27T06:20:05.786Z,96792.25
2023-01-27T06:23:03.230Z,96796.63
2023-01-27T06:26:07.323Z,96801.66
2023-01-27T06:29:04.392Z,96801.72
2023-01-27T06:32:01.213Z,96798.28
2023-01-27T06:34:58.301Z,96798.91
2023-01-27T06:37:55.183Z,96807.34
2023-01-27T06:40:51.990Z,96812.44
2023-01-27T06:43:48.729Z,96815.22
2023-01-27T06:46:45.542Z,96819.66
2023-01-27T06:49:42.298Z,96816.44
2023-01-27T06:52:39.046Z,96824.31
2023-01-27T06:55:41.433Z,96821.03
2023-01-27T06:58:38.180Z,96818.38
2023-01-27T07:01:35.960Z,96818.94
2023-01-27T07:04:32.760Z,96814.94
2023-01-27T07:07:29.583Z,96819.53
2023-01-27T07:10:27.237Z,96811.66
2023-01-27T07:13:23.999Z,96819.38
2023-01-27T07:16:20.952Z,96825.63
2023-01-27T07:19:17.762Z,96818.59
2023-01-27T07:22:14.508Z,96826.00
2023-01-27T07:25:11.354Z,96832.66
2023-01-27T07:28:08.112Z,96837.03
2023-01-27T07:31:05.095Z,96846.06
2023-01-27T07:34:01.877Z,96844.03
2023-01-27T07:36:58.966Z,96840.41
2023-01-27T07:39:55.750Z,96844.19
2023-01-27T07:42:52.515Z,96859.13
2023-01-27T07:45:52.835Z,96851.56
2023-01-27T07:48:49.619Z,96849.88
2023-01-27T07:51:46.825Z,96864.03
2023-01-27T07:54:43.959Z,96866.44
2023-01-27T07:57:40.740Z,96871.59
2023-01-27T08:00:37.685Z,96865.56
2023-01-27T08:03:35.138Z,96876.56
2023-01-27T08:06:32.647Z,96883.22
2023-01-27T08:09:29.387Z,96875.34
2023-01-27T08:12:26.137Z,96878.50
2023-01-27T08:15:22.980Z,96887.53
2023-01-27T08:18:19.782Z,96871.13
2023-01-27T08:21:16.554Z,96886.72
2023-01-27T08:24:13.380Z,96880.72
2023-01-27T08:27:10.622Z,96883.53
2023-01-27T08:30:08.890Z,96889.78
2023-01-27T08:33:05.648Z,96893.56
2023-01-27T08:36:04.661Z,96899.03
2023-01-27T08:39:01.392Z,96904.88
2023-01-27T08:41:58.328Z,96905.84
2023-01-27T08:44:55.525Z,96914.59
2023-01-27T08:47:52.353Z,96916.34
2023-01-27T08:50:50.189Z,96910.66
2023-01-27T08:53:46.943Z,96920.06
2023-01-27T08:56:43.709Z,96914.34
2023-01-27T08:59:40.464Z,96911.81
2023-01-27T09:02:37.375Z,96904.28
2023-01-27T09:05:35.958Z,96914.94
2023-01-27T09:08:32.783Z,96920.09
2023-01-27T09:11:29.593Z,96916.19
2023-01-27T09:14:26.336Z,96918.59
2023-01-27T09:17:23.081Z,96913.59
2023-01-27T09:20:19.877Z,96911.66
2023-01-27T09:23:16.705Z,96900.03
2023-01-27T09:26:13.434Z,96911.19
2023-01-27T09:29:10.160Z,96908.72
2023-01-27T09:32:09.114Z,96918.63
2023-01-27T09:35:06.407Z,96919.19
2023-01-27T09:38:04.896Z,96919.66
2023-01-27T09:41:34.141Z,96922.50
2023-01-27T09:44:52.276Z,96917.09
2023-01-27T09:48:07.626Z,96922.00
2023-01-27T09:51:39.993Z,96927.91
2023-01-27T09:54:53.197Z,96924.47
2023-01-27T09:58:02.017Z,96922.22
2023-01-27T10:01:04.668Z,96927.63
2023-01-27T10:04:06.982Z,96922.66
2023-01-27T10:07:27.214Z,96924.94
2023-01-27T10:10:40.166Z,96932.06
2023-01-27T10:13:55.442Z,96922.84
2023-01-27T10:17:01.197Z,96920.97
2023-01-27T10:20:18.936Z,96922.31
2023-01-27T10:23:40.199Z,96928.91
2023-01-27T10:26:46.010Z,96917.41
2023-01-27T10:29:46.253Z,96921.53
2023-01-27T10:32:53.121Z,96922.81
2023-01-27T10:35:52.859Z,96915.88
2023-01-27T10:39:08.366Z,96920.44
2023-01-27T10:42:23.021Z,96925.41
2023-01-27T10:45:40.978Z,96933.44
2023-01-27T10:48:41.199Z,96922.09
2023-01-27T10:52:05.772Z,96919.28
2023-01-27T10:55:14.797Z,96911.03
2023-01-27T10:58:32.550Z,96912.81
2023-01-27T11:01:33.086Z,96925.72
2023-01-27T11:04:29.840Z,96927.75
2023-01-27T11:07:27.071Z,96925.38
2023-01-27T11:10:25.345Z,96923.25
2023-01-27T11:13:22.126Z,96934.22
2023-01-27T11:16:19.903Z,96931.59
2023-01-27T11:19:42.718Z,96937.13
2023-01-27T11:23:04.573Z,96927.91
2023-01-27T11:26:10.896Z,96932.38
2023-01-27T11:29:20.112Z,96935.56
2023-01-27T11:32:35.628Z,96936.53
2023-01-27T11:35:32.447Z,96928.69
2023-01-27T11:38:29.182Z,96924.13
2023-01-27T11:41:25.993Z,96930.22
2023-01-27T11:44:27.972Z,96929.66
2023-01-27T11:47:29.071Z,96932.53
2023-01-27T11:50:30.145Z,96935.50
2023-01-27T11:53:36.634Z,96932.31
2023-01-27T11:56:35.778Z,96924.97
2023-01-27T11:59:38.372Z,96926.81
2023-01-27T12:02:41.586Z,96927.06
2023-01-27T12:05:45.898Z,96927.75
2023-01-27T12:08:49.546Z,96923.72
2023-01-27T12:11:46.408Z,96911.59
2023-01-27T12:14:57.743Z,96906.78
2023-01-27T12:17:57.294Z,96901.91
2023-01-27T12:21:02.994Z,96897.00
2023-01-27T12:24:00.290Z,96902.50
2023-01-27T12:26:57.545Z,96891.72
2023-01-27T12:30:00.245Z,96899.31
2023-01-27T12:32:58.183Z,96902.88
2023-01-27T12:35:59.943Z,96905.06
2023-01-27T12:39:00.372Z,96899.19
2023-01-27T12:41:57.152Z,96897.91
2023-01-27T12:49:34.439Z,96882.69
2023-01-27T12:53:19.997Z,96881.22
2023-01-27T12:59:52.659Z,96876.75
2023-01-27T13:02:49.491Z,96874.28
2023-01-27T13:05:46.493Z,96883.41
2023-01-27T13:08:43.462Z,96871.88
2023-01-27T13:11:40.804Z,96870.69
2023-01-27T13:14:41.513Z,96874.91
2023-01-27T13:17:56.926Z,96874.28
2023-01-27T13:20:59.062Z,96874.97
2023-01-27T13:23:55.830Z,96874.84
2023-01-27T13:26:54.789Z,96879.19
2023-01-27T13:30:00.667Z,96881.34
2023-01-27T13:33:23.480Z,96881.22
2023-01-27T13:36:37.586Z,96872.31
2023-01-27T13:40:16.609Z,96874.75
2023-01-27T13:43:36.117Z,96880.31
2023-01-27T13:46:37.166Z,96881.53
2023-01-27T13:49:44.699Z,96879.72
2023-01-27T13:52:41.437Z,96880.66
2023-01-27T13:55:56.871Z,96887.63
2023-01-27T13:59:21.164Z,96880.78
2023-01-27T14:02:37.345Z,96891.28
2023-01-27T14:05:42.738Z,96881.31
2023-01-27T14:09:01.275Z,96893.53
2023-01-27T14:12:16.761Z,96882.41
2023-01-27T14:15:31.282Z,96892.41
2023-01-27T14:18:37.431Z,96895.59
2023-01-27T14:21:57.902Z,96891.22
2023-01-27T14:25:03.587Z,96889.78
2023-01-27T14:28:21.848Z,96895.28
2023-01-27T14:31:38.291Z,96902.88
2023-01-27T14:34:56.896Z,96898.16
2023-01-27T14:38:16.695Z,96905.16
2023-01-27T14:41:31.203Z,96907.44
2023-01-27T14:45:09.926Z,96915.47
2023-01-27T14:48:23.010Z,96924.50
2023-01-27T14:51:45.134Z,96923.63
2023-01-27T14:55:03.792Z,96930.00
2023-01-27T14:58:03.724Z,96924.41
2023-01-27T15:01:22.336Z,96926.72
2023-01-27T15:04:44.266Z,96922.09
2023-01-27T15:07:58.008Z,96928.97
2023-01-27T15:11:19.569Z,96934.00
2023-01-27T15:14:43.859Z,96927.28
2023-01-27T15:17:59.335Z,96931.19
2023-01-27T15:21:14.506Z,96934.38
2023-01-27T15:24:37.724Z,96948.34
2023-01-27T15:27:34.793Z,96944.78
2023-01-27T15:30:34.891Z,96950.03
2023-01-27T15:33:55.066Z,96946.97
2023-01-27T15:37:03.413Z,96951.31
2023-01-27T15:40:15.651Z,96957.59
2023-01-27T15:43:15.406Z,96955.78
2023-01-27T15:46:42.019Z,96962.50
2023-01-27T15:49:46.620Z,96951.06
2023-01-27T15:52:47.528Z,96960.53
2023-01-27T15:55:49.235Z,96955.06
2023-01-27T15:58:58.598Z,96970.03
2023-01-27T16:02:10.294Z,96969.97
2023-01-27T16:05:27.107Z,96964.09
2023-01-27T16:08:24.836Z,96975.75
2023-01-27T16:11:23.798Z,96964.66
2023-01-27T16:14:23.363Z,96966.63
2023-01-27T16:17:22.834Z,96977.41
2023-01-27T16:20:31.261Z,96976.91
2023-01-27T16:23:39.272Z,96982.19
2023-01-27T16:26:46.099Z,96984.81
2023-01-27T16:29:48.613Z,96990.06
2023-01-27T16:33:16.256Z,96993.59
2023-01-27T16:36:27.847Z,97005.16
2023-01-27T16:39:34.339Z,97003.56
2023-01-27T16:42:37.996Z,97009.28
2023-01-27T16:45:48.980Z,97005.25
2023-01-27T16:48:46.883Z,97010.41
2023-01-27T16:51:43.692Z,97014.44
2023-01-27T16:54:42.759Z,97021.53
2023-01-27T16:57:45.306Z,97023.47
2023-01-27T17:00:42.149Z,97019.25
2023-01-27T17:03:39.229Z,97024.16
2023-01-27T17:06:36.117Z,97027.16
2023-01-27T17:09:39.841Z,97018.41
2023-01-27T17:12:45.818Z,97013.44
2023-01-27T17:15:43.359Z,97015.75
2023-01-27T17:18:51.856Z,97014.31
2023-01-27T17:21:57.183Z,97014.72
2023-01-27T17:24:55.320Z,97021.75
2023-01-27T17:27:52.173Z,97025.81
2023-01-27T17:30:50.575Z,97025.72
2023-01-27T17:33:49.993Z,97024.94
2023-01-27T17:37:13.774Z,97022.44
2023-01-27T17:40:17.617Z,97011.69
2023-01-27T17:43:31.958Z,97020.94
2023-01-27T17:46:31.562Z,97012.22
2023-01-27T17:49:29.844Z,97019.00
2023-01-27T17:52:27.817Z,97025.63
2023-01-27T17:55:27.038Z,97029.97
2023-01-27T17:58:26.073Z,97035.91
2023-01-27T18:01:23.030Z,97034.78
2023-01-27T18:04:21.583Z,97037.97
2023-01-27T18:07:18.348Z,97035.91
2023-01-27T18:10:27.392Z,97043.25
2023-01-27T18:13:27.304Z,97041.88
2023-01-27T18:16:24.650Z,97053.47
2023-01-27T18:19:24.972Z,97046.63
2023-01-27T18:22:25.938Z,97045.09
2023-01-27T18:25:23.767Z,97053.09
2023-01-27T18:28:20.520Z,97054.94
2023-01-27T18:31:25.702Z,97051.50
2023-01-27T18:34:29.402Z,97058.38
2023-01-27T18:37:34.437Z,97057.69
2023-01-27T18:40:35.944Z,97068.41
2023-01-27T18:43:32.819Z,97063.94
2023-01-27T18:46:29.596Z,97073.16
2023-01-27T18:49:26.372Z,97068.78
2023-01-27T18:52:23.530Z,97059.72
2023-01-27T18:55:22.567Z,97063.88
2023-01-27T18:58:19.307Z,97072.63
2023-01-27T19:01:21.524Z,97074.47
2023-01-27T19:04:18.250Z,97083.63
2023-01-27T19:07:17.947Z,97078.06
2023-01-27T19:10:20.617Z,97086.53
2023-01-27T19:13:17.673Z,97085.94
2023-01-27T19:16:16.679Z,97084.00
2023-01-27T19:19:13.490Z,97093.03
2023-01-27T19:22:16.153Z,97086.44
2023-01-27T19:25:13.937Z,97094.13
2023-01-27T19:28:17.753Z,97090.56
2023-01-27T19:31:14.663Z,97081.09
2023-01-27T19:34:12.918Z,97085.78
2023-01-27T19:37:18.727Z,97075.22
2023-01-27T19:40:21.086Z,97087.47
2023-01-27T19:43:17.836Z,97090.47
2023-01-27T19:46:18.290Z,97097.78
2023-01-27T19:49:19.076Z,97092.75
2023-01-27T19:52:15.845Z,97094.50
2023-01-27T19:55:12.912Z,97112.56
2023-01-27T19:58:20.127Z,97099.63
2023-01-27T20:01:18.116Z,97093.16
2023-01-27T20:04:15.056Z,97093.66
2023-01-27T20:07:12.459Z,97097.16
2023-01-27T20:10:31.485Z,97104.88
2023-01-27T20:13:28.236Z,97101.00
2023-01-27T20:16:25.634Z,97106.03
2023-01-27T20:19:23.013Z,97103.88
2023-01-27T20:22:19.767Z,97103.31
2023-01-27T20:25:18.528Z,97105.16
2023-01-27T20:28:15.284Z,97112.59
2023-01-27T20:31:14.288Z,97109.63
2023-01-27T20:34:11.041Z,97113.00
2023-01-27T20:37:08.122Z,97113.59
2023-01-27T20:40:05.568Z,97124.91
2023-01-27T20:43:02.330Z,97120.19
2023-01-27T20:46:07.340Z,97120.66
2023-01-27T20:49:04.102Z,97122.44
2023-01-27T20:52:00.851Z,97113.13
2023-01-27T20:54:57.567Z,97120.16
2023-01-27T20:57:54.347Z,97129.38
2023-01-27T21:00:51.205Z,97124.97
2023-01-27T21:03:48.122Z,97130.97
2023-01-27T21:06:44.879Z,97123.06
2023-01-27T21:09:41.620Z,97124.56
2023-01-27T21:12:38.424Z,97119.34
2023-01-27T21:15:35.163Z,97118.53
2023-01-27T21:18:31.919Z,97120.22
2023-01-27T21:21:29.833Z,97120.41
2023-01-27T21:24:26.787Z,97121.81
2023-01-27T21:27:23.583Z,97137.63
2023-01-27T21:30:20.330Z,97129.22
2023-01-27T21:33:17.112Z,97135.31
2023-01-27T21:36:14.042Z,97140.13
2023-01-27T21:39:10.786Z,97139.28
2023-01-27T21:42:14.398Z,97136.53
2023-01-27T21:45:13.254Z,97133.03
2023-01-27T21:48:10.227Z,97131.56
2023-01-27T21:51:07.018Z,97123.31
2023-01-27T21:54:03.858Z,97133.59
2023-01-27T21:57:00.600Z,97133.84
2023-01-27T21:59:57.389Z,97136.63
2023-01-27T22:02:59.739Z,97135.94
2023-01-27T22:05:56.479Z,97143.22
2023-01-27T22:08:53.259Z,97141.16
2023-01-27T22:11:49.991Z,97138.94
2023-01-27T22:14:46.717Z,97140.72
2023-01-27T22:17:44.200Z,97151.75
2023-01-27T22:20:40.990Z,97141.44
2023-01-27T22:23:37.714Z,97148.56
2023-01-27T22:26:35.106Z,97142.03
2023-01-27T22:29:31.847Z,97137.78
2023-01-27T22:32:28.687Z,97149.78
2023-01-27T22:35:25.443Z,97138.94
2023-01-27T22:38:22.194Z,97150.44
2023-01-27T22:41:18.953Z,97146.19
2023-01-27T22:44:16.555Z,97140.34
2023-01-27T22:47:13.318Z,97138.31
2023-01-27T22:50:10.768Z,97136.19
2023-01-27T22:53:07.529Z,97132.31
2023-01-27T22:56:04.500Z,97135.16
2023-01-27T22:59:01.223Z,97124.63
2023-01-27T23:01:57.985Z,97137.13
2023-01-27T23:04:55.173Z,97128.66
2023-01-27T23:07:51.929Z,97124.25
2023-01-27T23:10:49.030Z,97122.97
2023-01-27T23:13:45.775Z,97113.66
2023-01-27T23:16:42.571Z,97118.91
2023-01-27T23:19:39.336Z,97113.94
2023-01-27T23:22:36.690Z,97111.66
2023-01-27T23:25:34.760Z,97124.06
2023-01-27T23:28:31.611Z,97120.16
2023-01-27T23:31:28.451Z,97126.91
2023-01-27T23:34:25.611Z,97124.63
2023-01-27T23:37:22.371Z,97125.09
2023-01-27T23:40:19.245Z,97132.19
2023-01-27T23:43:15.998Z,97134.19
2023-01-27T23:46:13.421Z,97123.78
2023-01-27T23:49:10.788Z,97127.78
2023-01-27T23:52:07.925Z,97129.84
2023-01-27T23:55:04.976Z,97131.50
2023-01-27T23:58:01.794Z,97138.03
